Time;durP1;ratioP1;P1;durP2;ratioP2;P2;SDS_P1;SDS_P2;PMS_P1;PMS_P2;Temp;Humidity;BMP_temperature;BMP_pressure;BME280_temperature;BME280_humidity;BME280_pressure;Samples;Min_cycle;Max_cycle;Signal;HPM_P1;HPM_P2
2022/01/23 07:59:01;;;;;;;39.15;28.15;;;;;;;5.19;91.51;103473.69;5322297;27;20367;-71
2022/01/23 08:01:32;;;;;;;44.20;28.98;;;;;;;5.23;91.61;103472.25;5300839;28;20039;-71
2022/01/23 08:04:03;;;;;;;39.83;29.27;;;;;;;5.29;92.17;103481.66;5300943;28;20020;-72
2022/01/23 08:06:41;;;;;;;39.67;28.63;;;;;;;5.22;91.52;103475.22;5300727;28;20032;-73
2022/01/23 08:09:14;;;;;;;42.22;29.20;;;;;;;5.31;91.33;103474.06;5289858;28;20016;-71
2022/01/23 08:11:45;;;;;;;40.88;29.98;;;;;;;5.34;91.20;103470.06;5300743;28;20054;-72
2022/01/23 08:14:17;;;;;;;37.83;29.02;;;;;;;5.36;91.36;103468.81;5299783;28;20402;-72
2022/01/23 08:16:48;;;;;;;40.80;30.50;;;;;;;5.42;90.75;103472.75;5300859;28;20406;-73
2022/01/23 08:19:19;;;;;;;37.17;30.45;;;;;;;5.34;91.01;103479.19;5300853;28;20051;-72
2022/01/23 08:21:51;;;;;;;37.42;27.85;;;;;;;5.29;91.21;103478.03;5293220;28;20056;-71
2022/01/23 08:24:23;;;;;;;39.75;29.65;;;;;;;5.32;91.42;103480.44;5289452;28;20027;-71
2022/01/23 08:26:54;;;;;;;39.00;28.92;;;;;;;5.32;91.00;103481.28;5282197;28;20384;-71
2022/01/23 08:29:25;;;;;;;39.00;29.60;;;;;;;5.30;91.28;103483.38;5296614;28;20025;-71
2022/01/23 08:31:57;;;;;;;39.42;29.85;;;;;;;5.32;91.11;103480.44;5322081;28;20030;-70
2022/01/23 08:34:28;;;;;;;35.83;27.67;;;;;;;5.31;91.50;103487.81;5301939;28;20086;-71
2022/01/23 08:36:59;;;;;;;39.40;28.65;;;;;;;5.41;91.39;103488.38;5279350;28;20415;-71
2022/01/23 08:39:34;;;;;;;33.72;27.98;;;;;;;5.51;91.18;103490.84;5284638;28;20475;-71
2022/01/23 08:42:13;;;;;;;35.00;29.02;;;;;;;5.56;90.55;103496.63;5293311;28;20040;-71
2022/01/23 08:44:46;;;;;;;42.63;28.52;;;;;;;5.57;90.47;103501.09;5300151;28;20032;-71
2022/01/23 08:47:18;;;;;;;39.05;29.35;;;;;;;5.51;90.29;103507.34;5288961;28;20025;-72
2022/01/23 08:49:50;;;;;;;37.72;28.63;;;;;;;5.58;90.50;103511.06;5286443;28;20032;-72
2022/01/23 08:52:21;;;;;;;37.85;29.88;;;;;;;5.50;90.55;103508.41;5298674;28;20060;-73
2022/01/23 08:54:56;;;;;;;36.80;29.15;;;;;;;5.53;90.79;103508.03;5289154;28;20028;-72
2022/01/23 08:57:28;;;;;;;40.97;29.90;;;;;;;5.55;90.76;103511.44;5282565;28;20051;-74
2022/01/23 08:59:59;;;;;;;35.53;28.35;;;;;;;5.48;91.02;103513.25;5294645;28;20291;-73
2022/01/23 09:02:30;;;;;;;39.08;29.30;;;;;;;5.60;90.95;103510.88;5297372;28;20035;-72
2022/01/23 09:05:02;;;;;;;36.25;29.23;;;;;;;5.63;90.74;103511.34;5284885;28;20036;-71
2022/01/23 09:07:33;;;;;;;38.78;29.20;;;;;;;5.69;90.41;103504.19;5278694;28;20586;-72
2022/01/23 09:10:05;;;;;;;38.83;28.13;;;;;;;5.66;90.20;103510.94;5265803;28;20044;-72
2022/01/23 09:12:55;;;;;;;41.50;29.52;;;;;;;5.64;90.79;103515.78;5280718;28;20016;-73
2022/01/23 09:15:30;;;;;;;37.08;26.70;;;;;;;5.71;90.30;103501.28;5284286;28;20124;-72
2022/01/23 09:18:03;;;;;;;42.03;29.55;;;;;;;5.60;90.08;103506.22;5264322;28;20025;-73
2022/01/23 09:20:34;;;;;;;36.25;27.33;;;;;;;5.74;89.96;103501.72;5285059;28;20028;-73
2022/01/23 09:23:05;;;;;;;37.08;29.13;;;;;;;5.82;89.52;103493.34;5284711;28;20388;-73
2022/01/23 09:25:39;;;;;;;43.10;28.98;;;;;;;5.86;89.14;103499.34;5285191;28;20036;-73
2022/01/23 09:28:13;;;;;;;39.33;29.63;;;;;;;5.88;88.98;103503.63;5281945;28;20020;-73
2022/01/23 09:30:49;;;;;;;39.17;29.95;;;;;;;5.78;89.54;103499.47;5284820;28;20364;-72
2022/01/23 09:33:23;;;;;;;40.17;29.77;;;;;;;5.71;89.46;103493.84;5278796;28;20029;-73
2022/01/23 09:36:00;;;;;;;37.08;28.67;;;;;;;5.79;90.01;103506.66;5304242;28;20368;-72
2022/01/23 09:38:31;;;;;;;39.78;29.00;;;;;;;5.78;89.95;103505.81;5283213;28;20029;-72
2022/01/23 09:41:05;;;;;;;34.63;28.02;;;;;;;5.80;89.83;103500.97;5285508;28;20039;-72
2022/01/23 09:43:39;;;;;;;36.13;29.27;;;;;;;5.63;89.90;103494.81;5275120;28;20021;-73
2022/01/23 09:46:13;;;;;;;38.08;30.33;;;;;;;5.62;90.09;103512.41;5294155;28;20086;-72
2022/01/23 09:48:44;;;;;;;40.90;29.48;;;;;;;5.66;90.14;103516.47;5281865;28;20107;-73
2022/01/23 09:51:16;;;;;;;38.20;29.08;;;;;;;5.66;89.67;103510.09;5276466;28;20108;-73
2022/01/23 09:53:52;;;;;;;36.65;28.60;;;;;;;5.78;89.86;103518.75;5266883;28;20389;-73
2022/01/23 09:56:30;;;;;;;37.67;28.33;;;;;;;5.78;89.64;103521.50;5265458;28;20033;-73
2022/01/23 09:59:04;;;;;;;36.45;29.45;;;;;;;5.84;89.83;103528.97;5263528;28;20037;-72
2022/01/23 10:01:37;;;;;;;41.90;28.77;;;;;;;5.85;89.74;103527.91;5275789;28;20071;-72
2022/01/23 10:04:10;;;;;;;35.00;26.85;;;;;;;5.92;89.42;103520.59;5284701;28;20041;-74
2022/01/23 10:06:41;;;;;;;35.28;27.15;;;;;;;5.89;89.28;103526.50;5272461;28;20040;-72
2022/01/23 10:09:14;;;;;;;38.63;28.55;;;;;;;6.01;89.05;103529.66;5279903;28;20487;-69
2022/01/23 10:11:46;;;;;;;35.58;28.25;;;;;;;5.98;88.91;103525.38;5284119;28;20035;-70
2022/01/23 10:14:19;;;;;;;35.45;27.63;;;;;;;6.06;88.23;103532.69;5283348;28;20029;-71
2022/01/23 10:16:51;;;;;;;46.28;34.90;;;;;;;5.96;88.09;103521.97;5282435;28;20357;-71
2022/01/23 10:19:22;;;;;;;35.22;27.15;;;;;;;6.00;88.10;103530.69;5284132;28;20024;-72
2022/01/23 10:21:54;;;;;;;32.70;25.98;;;;;;;6.04;88.24;103532.84;5278059;28;20078;-71
2022/01/23 10:24:25;;;;;;;33.67;26.63;;;;;;;6.05;88.25;103526.28;5277189;28;20040;-72
2022/01/23 10:27:01;;;;;;;35.20;25.88;;;;;;;6.10;88.37;103517.44;5268312;28;20021;-72
2022/01/23 10:29:37;;;;;;;32.92;26.25;;;;;;;6.09;88.05;103522.09;5279426;28;20023;-72
2022/01/23 10:32:24;;;;;;;36.35;28.33;;;;;;;6.09;88.06;103522.09;5284061;28;20032;-72
2022/01/23 10:35:02;;;;;;;36.80;27.52;;;;;;;6.23;87.84;103516.75;5282867;28;20070;-72
2022/01/23 10:37:37;;;;;;;35.80;27.70;;;;;;;6.13;88.00;103517.06;5279937;28;20089;-71
2022/01/23 10:40:29;;;;;;;34.45;28.27;;;;;;;6.19;88.16;103518.19;5274966;28;20381;-72
2022/01/23 10:48:46;;;;;;;53.55;39.45;;;;;;;6.25;88.34;103520.16;5279642;28;20040;-71
2022/01/23 10:51:29;;;;;;;34.90;28.05;;;;;;;6.25;88.39;103509.97;5283343;28;20464;-72
2022/01/23 10:54:22;;;;;;;35.72;28.30;;;;;;;6.26;87.90;103510.81;5273929;28;20532;-71
2022/01/23 10:56:53;;;;;;;38.40;29.08;;;;;;;6.22;87.61;103512.28;5262079;28;20132;-71
2022/01/23 10:59:26;;;;;;;46.50;36.10;;;;;;;6.21;87.95;103503.16;5278270;28;20516;-71
2022/01/23 11:02:02;;;;;;;35.28;26.98;;;;;;;6.34;87.66;103507.97;5282494;28;20367;-71
2022/01/23 11:04:49;;;;;;;33.55;28.52;;;;;;;6.23;88.20;103516.75;5283563;28;20483;-73
2022/01/23 11:07:22;;;;;;;36.05;25.40;;;;;;;6.36;87.67;103516.03;5275343;28;20025;-75
2022/01/23 11:10:07;;;;;;;32.95;26.40;;;;;;;6.44;87.30;103508.50;5271103;28;20024;-76
2022/01/23 11:17:22;;;;;;;33.25;25.17;;;;;;;6.44;86.87;103511.25;5280886;28;20042;-75
2022/01/23 11:18:32;;;;;;;;;;;;;;;6.63;87.50;103493.19;5282875;28;20048;-72
2022/01/23 11:21:15;;;;;;;33.28;24.08;;;;;;;6.49;86.69;103499.59;5274727;28;19919;-75
2022/01/23 11:23:55;;;;;;;32.25;25.92;;;;;;;6.58;86.78;103500.34;5279499;28;20035;-74
2022/01/23 11:26:33;;;;;;;35.50;26.40;;;;;;;6.55;86.92;103495.22;5277951;28;20039;-75
2022/01/23 11:29:12;;;;;;;40.78;32.28;;;;;;;6.57;86.80;103491.22;5281166;28;20031;-75
2022/01/23 11:31:44;;;;;;;38.25;29.33;;;;;;;6.52;86.85;103499.25;5280464;28;20373;-73
2022/01/23 11:34:20;;;;;;;36.70;29.35;;;;;;;6.61;87.46;103494.44;5277873;28;20077;-75
2022/01/23 11:36:52;;;;;;;38.08;28.80;;;;;;;6.58;87.93;103489.31;5279434;28;20516;-76
2022/01/23 11:39:48;;;;;;;39.55;28.25;;;;;;;6.64;87.60;103481.09;5277610;28;20070;-74
2022/01/23 11:51:06;;;;;;;46.78;33.28;;;;;;;6.81;87.08;103492.69;5273575;28;20480;-74
2022/01/23 11:56:38;;;;;;;39.50;31.13;;;;;;;6.73;87.60;103474.38;5280496;28;20124;-72
2022/01/23 11:59:09;;;;;;;38.85;31.05;;;;;;;6.82;86.77;103480.59;5265430;28;20094;-69
2022/01/23 12:01:42;;;;;;;36.85;26.90;;;;;;;6.76;85.32;103484.16;5266346;28;20036;-71
2022/01/23 12:04:22;;;;;;;32.70;26.52;;;;;;;6.77;85.88;103480.34;5280850;28;20025;-72
2022/01/23 12:07:22;;;;;;;35.38;26.73;;;;;;;6.90;85.47;103472.19;5272307;28;20089;-71
2022/01/23 12:10:17;;;;;;;120.53;88.75;;;;;;;6.94;85.24;103480.91;5274060;28;20082;-73
2022/01/23 12:12:51;;;;;;;53.90;41.35;;;;;;;6.88;84.65;103467.94;5302920;28;20040;-75
2022/01/23 12:18:21;;;;;;;38.67;28.20;;;;;;;6.80;83.82;103468.94;5303954;28;20437;-75
2022/01/23 12:20:53;;;;;;;46.28;34.80;;;;;;;6.80;83.56;103457.91;5290199;28;20025;-74
2022/01/23 12:23:24;;;;;;;40.58;32.15;;;;;;;6.78;83.54;103454.47;5269725;28;20036;-72
2022/01/23 12:25:57;;;;;;;33.40;26.40;;;;;;;6.85;83.50;103462.78;5275801;28;20044;-74
2022/01/23 12:28:32;;;;;;;29.33;23.83;;;;;;;6.81;83.47;103456.81;5281566;28;20029;-73
2022/01/23 12:31:13;;;;;;;35.67;28.13;;;;;;;6.91;84.34;103454.56;5282751;28;20036;-72
2022/01/23 12:33:49;;;;;;;33.65;24.52;;;;;;;6.90;83.45;103452.88;5281146;28;20032;-73
2022/01/23 12:36:31;;;;;;;30.05;24.73;;;;;;;6.88;83.22;103457.72;5282300;28;20028;-71
2022/01/23 12:39:08;;;;;;;29.50;23.42;;;;;;;6.92;82.72;103453.50;5282115;28;20032;-74
2022/01/23 12:41:51;;;;;;;28.92;23.00;;;;;;;6.96;82.84;103449.28;5277905;28;20461;-73
2022/01/23 12:44:22;;;;;;;30.90;25.95;;;;;;;6.91;82.48;103446.28;5283951;28;20476;-78
2022/01/23 12:46:57;;;;;;;30.30;24.83;;;;;;;6.97;82.86;103444.63;5285469;28;20025;-79
2022/01/23 12:49:46;;;;;;;31.13;25.02;;;;;;;6.95;82.57;103444.84;5282255;28;20016;-75
2022/01/23 12:52:20;;;;;;;36.90;27.92;;;;;;;6.99;83.50;103441.69;5286054;28;20039;-75
2022/01/23 12:55:00;;;;;;;40.03;30.52;;;;;;;7.05;83.76;103438.09;5285218;28;20033;-73
2022/01/23 12:57:40;;;;;;;34.60;26.38;;;;;;;6.99;83.03;103441.69;5280385;28;20097;-74
2022/01/23 13:00:18;;;;;;;36.50;26.70;;;;;;;7.02;82.67;103433.84;5282531;28;20054;-74
2022/01/23 13:02:52;;;;;;;30.27;24.23;;;;;;;7.03;81.79;103434.69;5285270;28;20021;-73
2022/01/23 13:05:23;;;;;;;35.95;25.13;;;;;;;7.08;81.73;103432.16;5286110;28;20021;-74
2022/01/23 13:08:10;;;;;;;32.35;25.38;;;;;;;7.07;81.74;103430.47;5285785;28;20418;-74
2022/01/23 13:14:08;;;;;;;31.90;26.75;;;;;;;7.05;81.53;103427.06;5285679;28;20107;-74
2022/01/23 13:16:23;;;;;;;33.60;25.67;;;;;;;7.07;81.20;103422.19;5254434;28;20036;-74
2022/01/23 13:19:31;;;;;;;31.08;24.83;;;;;;;7.02;81.18;103424.72;5285568;28;20070;-74
2022/01/23 13:30:25;;;;;;;38.60;30.25;;;;;;;6.93;81.38;103413.84;5264032;28;20036;-73
2022/01/23 13:33:09;;;;;;;33.88;26.92;;;;;;;6.95;82.11;103420.00;5264986;28;20029;-74
2022/01/23 13:35:42;;;;;;;36.78;29.30;;;;;;;7.05;82.78;103416.88;5264941;28;20025;-72
2022/01/23 13:38:15;;;;;;;35.00;26.65;;;;;;;7.06;82.71;103414.97;5269186;28;20051;-73
2022/01/23 13:41:08;;;;;;;39.00;29.33;;;;;;;7.07;82.62;103413.91;5285366;28;20028;-73
2022/01/23 13:51:10;;;;;;;107.03;84.68;;;;;;;7.25;86.31;103411.47;5269609;28;20397;-75
2022/01/23 13:52:56;;;;;;;39.63;28.48;;;;;;;7.23;83.75;103405.28;5263198;28;20125;-70
2022/01/23 13:58:34;;;;;;;58.35;47.05;;;;;;;7.42;84.20;103402.84;5282477;28;20045;-72
2022/01/23 14:03:58;;;;;;;84.30;65.25;;;;;;;7.65;85.85;103399.75;5283692;28;20483;-71
2022/01/23 14:06:29;;;;;;;65.70;49.70;;;;;;;7.73;86.99;103394.03;5267656;28;20091;-77
2022/01/23 14:09:07;;;;;;;35.88;28.48;;;;;;;7.55;82.46;103389.91;5262885;28;20083;-73
2022/01/23 14:11:39;;;;;;;41.45;30.40;;;;;;;7.48;82.07;103393.72;5262086;28;20029;-73
2022/01/23 14:14:24;;;;;;;41.95;34.35;;;;;;;7.53;82.57;103391.19;5278674;28;20111;-74
2022/01/23 14:17:11;;;;;;;39.63;30.10;;;;;;;7.52;81.94;103390.34;5282800;28;20021;-74
2022/01/23 14:20:05;;;;;;;78.78;60.33;;;;;;;7.90;86.08;103386.16;5283375;28;20020;-73
2022/01/23 14:22:39;;;;;;;48.65;39.90;;;;;;;7.96;85.29;103383.44;5269524;28;20081;-78
2022/01/23 14:25:17;;;;;;;34.45;25.95;;;;;;;7.69;81.19;103401.00;5283574;28;20028;-76
2022/01/23 14:28:01;;;;;;;33.55;26.75;;;;;;;7.52;81.69;103400.53;5283556;28;20025;-77
2022/01/23 14:30:34;;;;;;;34.25;27.60;;;;;;;7.35;81.54;103400.03;5269446;28;20024;-78
2022/01/23 14:33:14;;;;;;;36.75;27.08;;;;;;;7.38;81.53;103410.66;5262291;28;20045;-76
2022/01/23 14:35:46;;;;;;;30.63;23.63;;;;;;;7.30;80.57;103408.94;5265527;28;20033;-77
2022/01/23 14:38:21;;;;;;;27.00;23.00;;;;;;;7.35;80.46;103411.94;5283819;28;20430;-77
2022/01/23 14:40:58;;;;;;;35.92;29.70;;;;;;;7.31;80.59;103416.19;5268078;28;20112;-77
2022/01/23 14:43:41;;;;;;;29.52;23.42;;;;;;;7.28;80.57;103413.81;5280297;28;20123;-77
2022/01/23 14:46:12;;;;;;;29.63;22.35;;;;;;;7.25;80.53;103411.47;5273938;28;20387;-77
2022/01/23 14:48:50;;;;;;;31.45;24.50;;;;;;;7.22;80.55;103409.13;5276023;28;20032;-77
2022/01/23 14:51:24;;;;;;;31.50;24.73;;;;;;;7.32;81.07;103406.81;5283775;28;20020;-77
2022/01/23 14:53:55;;;;;;;31.85;24.35;;;;;;;7.35;81.33;103411.94;5281919;28;20033;-77
2022/01/23 14:56:29;;;;;;;24.80;21.02;;;;;;;7.22;78.92;103411.03;5281348;28;20098;-77
2022/01/23 14:59:00;;;;;;;33.83;23.05;;;;;;;7.31;80.00;103405.13;5282669;28;20519;-77
2022/01/23 15:01:33;;;;;;;27.95;22.40;;;;;;;7.30;79.82;103414.44;5283113;28;20032;-77
2022/01/23 15:04:08;;;;;;;27.02;21.67;;;;;;;7.31;79.45;103407.00;5283476;28;20053;-77
2022/01/23 15:06:46;;;;;;;25.98;21.70;;;;;;;7.31;79.37;103410.66;5283336;28;20024;-77
2022/01/23 15:09:19;;;;;;;30.90;22.73;;;;;;;7.31;78.89;103405.13;5282811;28;20032;-77
2022/01/23 15:11:51;;;;;;;28.52;21.88;;;;;;;7.18;79.20;103405.03;5283247;28;20107;-77
2022/01/23 15:14:22;;;;;;;27.83;21.08;;;;;;;7.27;79.62;103405.75;5267344;28;20325;-77
2022/01/23 15:16:53;;;;;;;30.10;23.45;;;;;;;7.19;79.04;103412.28;5260242;28;20033;-77
2022/01/23 15:19:25;;;;;;;30.77;23.95;;;;;;;7.12;80.24;103409.47;5261523;28;20025;-77
2022/01/23 15:21:56;;;;;;;29.05;22.63;;;;;;;7.15;79.65;103408.22;5262462;28;20482;-76
2022/01/23 15:24:28;;;;;;;32.13;25.45;;;;;;;7.15;80.42;103419.25;5261424;28;20162;-74
2022/01/23 15:26:59;;;;;;;30.02;24.25;;;;;;;7.21;80.61;103404.66;5270599;28;20472;-76
2022/01/23 15:29:31;;;;;;;32.30;25.85;;;;;;;7.24;80.64;103409.75;5281991;28;20157;-75
2022/01/23 15:32:03;;;;;;;36.05;25.95;;;;;;;7.21;80.59;103409.31;5282745;28;20017;-74
2022/01/23 15:34:36;;;;;;;31.73;26.45;;;;;;;7.16;81.38;103407.19;5282766;28;20392;-75
2022/01/23 15:37:07;;;;;;;36.33;27.67;;;;;;;7.16;80.99;103407.19;5282180;28;20401;-74
2022/01/23 15:39:39;;;;;;;43.28;30.15;;;;;;;7.18;81.17;103410.56;5282907;28;20111;-74
2022/01/23 15:42:11;;;;;;;35.22;26.35;;;;;;;7.11;80.88;103409.69;5282989;28;20029;-75
2022/01/23 15:44:42;;;;;;;34.50;27.48;;;;;;;7.14;81.23;103412.06;5281214;28;20025;-74
2022/01/23 15:47:14;;;;;;;29.92;24.42;;;;;;;7.15;81.51;103416.50;5277255;28;20032;-74
2022/01/23 15:49:45;;;;;;;32.83;24.30;;;;;;;7.17;81.78;103414.41;5261870;28;20448;-74
2022/01/23 15:52:17;;;;;;;32.67;24.50;;;;;;;7.21;81.52;103410.19;5275342;28;20023;-75
2022/01/23 15:54:48;;;;;;;31.60;25.42;;;;;;;7.14;81.66;103409.28;5282581;28;20056;-75
2022/01/23 15:57:20;;;;;;;30.00;22.77;;;;;;;7.15;81.62;103405.47;5282742;28;20106;-74
2022/01/23 15:59:51;;;;;;;29.15;23.77;;;;;;;7.12;81.17;103394.84;5282393;28;20499;-76
2022/01/23 16:02:22;;;;;;;34.20;24.90;;;;;;;7.16;81.45;103407.19;5282932;28;20059;-73
2022/01/23 16:04:54;;;;;;;32.10;23.92;;;;;;;7.19;81.62;103402.09;5270429;28;20487;-73
2022/01/23 16:07:25;;;;;;;27.65;23.05;;;;;;;7.13;81.30;103407.56;5277203;28;20103;-74
2022/01/23 16:09:57;;;;;;;27.55;22.02;;;;;;;7.15;80.98;103405.47;5282791;28;20226;-74
2022/01/23 16:12:29;;;;;;;25.70;22.42;;;;;;;7.09;80.26;103407.13;5282048;28;20032;-74
2022/01/23 16:15:03;;;;;;;26.75;22.55;;;;;;;7.05;80.50;103410.50;5282551;28;20020;-73
2022/01/23 16:17:35;;;;;;;27.98;24.48;;;;;;;7.06;81.12;103409.47;5282258;28;20051;-73
2022/01/23 16:20:08;;;;;;;29.38;24.38;;;;;;;7.04;80.73;103406.91;5284761;28;20020;-74
2022/01/23 16:22:43;;;;;;;29.83;24.38;;;;;;;7.11;81.06;103401.41;5283218;28;20023;-75
2022/01/23 16:25:17;;;;;;;29.70;24.38;;;;;;;7.03;81.19;103401.56;5286625;28;20032;-75
2022/01/23 16:27:49;;;;;;;27.17;24.23;;;;;;;7.03;81.01;103407.09;5286188;28;20396;-77
2022/01/23 16:30:21;;;;;;;32.28;25.95;;;;;;;7.06;81.76;103401.19;5286941;28;20032;-76
2022/01/23 16:32:54;;;;;;;30.67;24.08;;;;;;;7.08;80.66;103404.56;5286123;28;20036;-74
2022/01/23 16:35:25;;;;;;;27.52;22.65;;;;;;;7.02;80.68;103405.41;5286998;28;20154;-75
2022/01/23 16:37:57;;;;;;;29.23;23.30;;;;;;;7.02;80.33;103394.34;5282962;28;20551;-75
2022/01/23 16:40:28;;;;;;;25.35;21.25;;;;;;;7.00;80.67;103402.81;5264769;28;20503;-75
2022/01/23 16:42:59;;;;;;;28.92;22.85;;;;;;;6.94;80.94;103396.22;5265986;28;20472;-75
2022/01/23 16:45:31;;;;;;;27.25;22.95;;;;;;;7.01;80.51;103403.69;5265874;28;20032;-75
2022/01/23 16:48:03;;;;;;;26.08;21.63;;;;;;;6.93;80.26;103401.97;5264946;28;20029;-76
2022/01/23 16:50:35;;;;;;;25.42;21.80;;;;;;;6.96;80.95;103402.41;5265282;28;20021;-76
2022/01/23 16:53:09;;;;;;;26.55;21.55;;;;;;;6.92;80.55;103397.47;5265672;28;20427;-76
2022/01/23 16:55:41;;;;;;;29.38;22.98;;;;;;;6.98;80.91;103399.44;5265226;28;20476;-78
2022/01/23 16:58:13;;;;;;;30.35;23.75;;;;;;;6.94;80.94;103398.13;5284793;28;20053;-77
2022/01/23 17:00:44;;;;;;;28.35;23.65;;;;;;;7.00;81.08;103400.06;5285160;28;20550;-79
2022/01/23 17:03:15;;;;;;;29.27;23.75;;;;;;;6.95;80.61;103400.69;5286268;28;20738;-75
2022/01/23 17:05:47;;;;;;;28.90;23.40;;;;;;;6.98;81.11;103393.94;5285430;28;20078;-75
2022/01/23 17:08:19;;;;;;;29.35;23.65;;;;;;;6.92;80.82;103395.56;5285707;28;20084;-76
2022/01/23 17:10:52;;;;;;;27.45;22.67;;;;;;;6.81;80.80;103400.81;5285879;28;20028;-75
2022/01/23 17:13:24;;;;;;;31.52;24.58;;;;;;;6.89;80.98;103407.00;5283250;28;20029;-75
2022/01/23 17:15:55;;;;;;;26.98;23.92;;;;;;;6.91;80.65;103406.81;5284833;28;20028;-74
2022/01/23 17:18:28;;;;;;;32.38;25.00;;;;;;;6.82;81.46;103411.63;5285583;28;20036;-75
2022/01/23 17:21:00;;;;;;;26.38;23.33;;;;;;;6.76;81.53;103406.94;5281797;28;20046;-75
2022/01/23 17:23:31;;;;;;;26.52;22.60;;;;;;;6.78;82.20;103410.34;5285063;28;20438;-75
2022/01/23 17:26:03;;;;;;;29.98;23.85;;;;;;;6.75;82.41;103411.59;5285578;28;20456;-76
2022/01/23 17:28:34;;;;;;;33.00;25.52;;;;;;;6.79;82.80;103417.56;5285403;28;20033;-76
